Time;durP1;ratioP1;P1;durP2;ratioP2;P2;SDS_P1;SDS_P2;PMS_P1;PMS_P2;Temp;Humidity;BMP_temperature;BMP_pressure;BME280_temperature;BME280_humidity;BME280_pressure;Samples;Min_cycle;Max_cycle;Signal;HPM_P1;HPM_P2
2022/09/15 00:01:09;;;;;;;18.73;17.43;;;19.30;99.90;;;;;;4971799;28;20474;-82
2022/09/15 00:03:37;;;;;;;19.10;17.77;;;19.40;99.90;;;;;;4971909;28;20989;-82
2022/09/15 00:06:05;;;;;;;19.27;18.07;;;19.30;99.90;;;;;;4971955;28;20514;-81
2022/09/15 00:08:32;;;;;;;17.80;16.83;;;19.30;99.90;;;;;;4972022;28;20827;-81
2022/09/15 00:11:06;;;;;;;18.10;17.20;;;19.40;99.90;;;;;;4971998;28;20454;-82
2022/09/15 00:13:34;;;;;;;17.60;16.40;;;19.40;99.90;;;;;;4971871;28;20554;-81
2022/09/15 00:16:01;;;;;;;17.47;16.57;;;19.40;99.90;;;;;;4971880;28;20539;-78
2022/09/15 00:18:28;;;;;;;17.53;16.50;;;19.40;99.90;;;;;;4971791;28;20456;-81
2022/09/15 00:20:56;;;;;;;18.90;17.80;;;19.40;99.90;;;;;;4971460;28;20965;-82
2022/09/15 00:23:22;;;;;;;17.13;16.13;;;19.40;99.90;;;;;;4971418;28;20498;-81
2022/09/15 00:25:51;;;;;;;18.27;17.27;;;19.40;99.90;;;;;;4971546;28;20455;-80
2022/09/15 00:28:20;;;;;;;17.40;16.53;;;19.20;99.90;;;;;;4971554;28;20459;-76
2022/09/15 00:30:48;;;;;;;18.07;17.07;;;19.10;99.90;;;;;;4971405;28;21001;-79
2022/09/15 00:33:16;;;;;;;18.53;17.37;;;19.10;99.90;;;;;;4973376;28;20455;-82
2022/09/15 03:35:18;;;;;;;14.17;13.67;;;19.20;99.90;;;;;;5760111;23;20548;-72
2022/09/15 03:37:45;;;;;;;16.43;15.70;;;19.30;99.90;;;;;;5008762;28;20470;-73
2022/09/15 03:40:12;;;;;;;14.83;14.20;;;19.30;99.90;;;;;;5010417;28;20453;-72
2022/09/15 03:42:39;;;;;;;14.10;13.60;;;19.40;99.90;;;;;;5010161;28;20940;-72
2022/09/15 03:45:06;;;;;;;14.60;14.00;;;19.30;99.90;;;;;;5010184;28;20493;-72
2022/09/15 03:47:33;;;;;;;14.90;14.30;;;19.20;99.90;;;;;;5010663;28;20454;-72
2022/09/15 03:49:59;;;;;;;13.73;13.23;;;19.60;99.90;;;;;;5010551;28;20912;-72
2022/09/15 03:52:31;;;;;;;14.47;13.97;;;19.30;99.90;;;;;;5010157;28;20473;-72
2022/09/15 03:54:57;;;;;;;14.53;14.03;;;19.40;99.90;;;;;;5010056;28;20486;-73
2022/09/15 03:57:24;;;;;;;15.20;14.60;;;19.50;99.90;;;;;;5009742;28;20501;-72
2022/09/15 03:59:51;;;;;;;14.30;13.77;;;19.40;99.90;;;;;;5009410;28;20465;-73
2022/09/15 04:02:18;;;;;;;14.60;14.00;;;19.30;99.90;;;;;;5009931;28;20449;-72
2022/09/15 04:04:44;;;;;;;14.50;14.00;;;19.30;99.90;;;;;;5009988;28;20576;-72
2022/09/15 04:07:11;;;;;;;15.97;15.27;;;19.30;99.90;;;;;;5009697;28;20454;-71
2022/09/15 04:09:39;;;;;;;14.10;13.50;;;19.20;99.90;;;;;;5009632;28;20839;-72
2022/09/15 04:12:06;;;;;;;15.67;14.90;;;19.30;99.90;;;;;;5009594;28;20461;-71
2022/09/15 04:14:33;;;;;;;15.20;14.40;;;19.20;99.90;;;;;;5009836;28;20450;-72
2022/09/15 04:16:59;;;;;;;14.80;14.20;;;20.10;99.90;;;;;;5010101;28;20738;-72
2022/09/15 04:19:26;;;;;;;15.40;14.80;;;19.60;99.90;;;;;;5009636;28;20461;-72
2022/09/15 04:21:53;;;;;;;13.70;13.30;;;19.10;99.90;;;;;;5009845;28;21049;-71
2022/09/15 04:24:19;;;;;;;15.33;14.63;;;19.00;99.90;;;;;;5009354;28;20492;-72
2022/09/15 04:26:47;;;;;;;15.20;14.60;;;19.20;99.90;;;;;;5009907;28;20446;-71
2022/09/15 04:29:16;;;;;;;14.63;14.13;;;19.40;99.90;;;;;;5009693;28;20461;-72
2022/09/15 04:31:43;;;;;;;14.60;14.00;;;19.10;99.90;;;;;;5009511;28;20450;-72
2022/09/15 04:34:10;;;;;;;15.30;14.70;;;19.20;99.90;;;;;;5009144;28;20470;-71
2022/09/15 04:36:36;;;;;;;18.80;18.10;;;19.20;99.90;;;;;;5009401;28;20589;-70
2022/09/15 04:39:04;;;;;;;18.50;17.80;;;19.10;99.90;;;;;;5009756;28;20453;-70
2022/09/15 04:41:32;;;;;;;18.17;17.53;;;19.00;99.90;;;;;;5009772;28;20493;-71
2022/09/15 04:44:00;;;;;;;17.83;17.13;;;18.90;99.90;;;;;;5009135;28;20536;-71
2022/09/15 04:46:27;;;;;;;18.10;17.40;;;18.70;99.90;;;;;;5009136;28;20449;-70
2022/09/15 04:48:55;;;;;;;18.00;17.20;;;18.80;99.90;;;;;;5009229;28;20956;-70
2022/09/15 04:51:22;;;;;;;17.23;16.60;;;18.70;99.90;;;;;;5008892;28;20615;-71
2022/09/15 04:53:50;;;;;;;18.10;17.20;;;18.70;99.90;;;;;;5009079;28;20454;-72
2022/09/15 04:56:18;;;;;;;17.13;16.53;;;18.70;99.90;;;;;;5009513;28;20468;-71
2022/09/15 04:58:47;;;;;;;16.53;15.93;;;18.90;99.90;;;;;;5009401;28;20450;-70
2022/09/15 05:01:17;;;;;;;14.03;13.53;;;18.70;99.90;;;;;;5009403;28;20466;-71
2022/09/15 05:03:45;;;;;;;16.33;15.50;;;19.00;99.90;;;;;;5008958;28;20450;-71
2022/09/15 05:06:14;;;;;;;15.53;15.03;;;18.90;99.90;;;;;;5008870;28;20453;-71
2022/09/15 05:08:41;;;;;;;15.00;14.40;;;19.00;99.90;;;;;;5008586;28;20821;-71
2022/09/15 05:11:10;;;;;;;15.70;15.00;;;19.00;99.90;;;;;;5008528;28;20635;-70
2022/09/15 05:13:37;;;;;;;14.90;13.90;;;19.10;99.90;;;;;;5008626;28;20442;-73
2022/09/15 05:16:06;;;;;;;14.90;14.40;;;19.20;99.90;;;;;;5008478;28;20450;-71
2022/09/15 05:18:34;;;;;;;14.37;13.77;;;19.20;99.90;;;;;;5008846;28;20774;-71
2022/09/15 05:21:02;;;;;;;12.33;11.90;;;19.30;99.90;;;;;;5008723;28;20936;-74
2022/09/15 05:23:29;;;;;;;14.93;14.33;;;19.30;99.90;;;;;;5008771;28;20454;-73
2022/09/15 05:25:56;;;;;;;14.57;13.97;;;19.40;99.90;;;;;;5008559;28;20925;-74
2022/09/15 05:28:23;;;;;;;16.30;14.93;;;19.40;99.90;;;;;;5008463;28;20481;-74
2022/09/15 05:30:50;;;;;;;14.67;14.00;;;19.40;99.90;;;;;;5008425;28;20519;-74
2022/09/15 05:33:17;;;;;;;16.60;15.97;;;19.20;99.90;;;;;;5008556;28;20457;-72
2022/09/15 05:35:51;;;;;;;15.90;15.40;;;19.20;99.90;;;;;;5008510;28;20500;-72
2022/09/15 05:38:18;;;;;;;14.47;13.77;;;19.20;99.90;;;;;;5008793;28;20449;-71
2022/09/15 05:40:45;;;;;;;14.70;13.97;;;19.10;99.90;;;;;;5008832;28;20994;-73
2022/09/15 05:43:11;;;;;;;14.60;14.10;;;19.30;99.90;;;;;;5008368;28;20768;-72
2022/09/15 05:45:41;;;;;;;14.77;14.27;;;19.30;99.90;;;;;;5008580;28;20493;-72
2022/09/15 05:48:08;;;;;;;16.57;15.97;;;19.60;99.90;;;;;;5008097;28;20938;-73
2022/09/15 05:50:35;;;;;;;14.90;14.40;;;19.50;99.90;;;;;;5003727;28;20717;-73
2022/09/15 05:53:03;;;;;;;16.40;15.53;;;19.70;99.90;;;;;;5006312;28;20446;-73
2022/09/15 05:55:29;;;;;;;14.00;13.40;;;19.60;99.90;;;;;;5007986;28;20461;-76
2022/09/15 05:57:56;;;;;;;14.47;13.97;;;19.60;99.90;;;;;;5010279;28;20453;-74
2022/09/15 06:00:23;;;;;;;14.90;14.30;;;;;;;;;;5011681;28;20442;-74
2022/09/15 06:02:51;;;;;;;14.37;13.77;;;19.60;99.90;;;;;;5011688;28;20481;-73
2022/09/15 06:05:17;;;;;;;14.90;14.40;;;19.70;99.90;;;;;;5011584;28;20522;-74
2022/09/15 06:07:44;;;;;;;14.87;14.37;;;19.30;99.90;;;;;;5011868;28;20453;-74
2022/09/15 06:10:12;;;;;;;14.87;14.27;;;19.90;99.90;;;;;;5011225;28;20460;-74
2022/09/15 06:12:39;;;;;;;14.00;13.50;;;19.90;99.90;;;;;;5011214;28;20820;-74
2022/09/15 06:15:06;;;;;;;14.40;13.70;;;19.90;99.90;;;;;;5011176;28;20450;-74
2022/09/15 06:17:33;;;;;;;15.40;14.80;;;19.90;99.90;;;;;;5011346;28;20446;-74
2022/09/15 06:20:00;;;;;;;13.93;13.43;;;20.30;99.90;;;;;;5011418;28;20461;-74
2022/09/15 06:22:28;;;;;;;14.00;13.60;;;20.30;99.90;;;;;;5011300;28;20889;-75
2022/09/15 06:24:54;;;;;;;14.30;13.80;;;20.20;99.90;;;;;;5011347;28;20626;-75
2022/09/15 06:27:22;;;;;;;13.77;13.27;;;20.50;99.90;;;;;;5010898;28;20457;-75
2022/09/15 06:29:49;;;;;;;14.17;13.77;;;20.40;99.90;;;;;;5011078;28;20774;-75
2022/09/15 06:32:16;;;;;;;14.40;13.90;;;20.50;99.90;;;;;;5011563;28;20826;-76
2022/09/15 06:34:42;;;;;;;13.73;13.20;;;20.90;99.90;;;;;;5010620;28;20482;-75
2022/09/15 06:37:10;;;;;;;14.53;14.03;;;20.50;99.90;;;;;;5010855;28;20480;-75
2022/09/15 06:39:36;;;;;;;20.30;19.50;;;20.50;99.90;;;;;;5010982;28;20781;-74
2022/09/15 06:42:03;;;;;;;22.43;21.53;;;20.40;99.90;;;;;;5008350;28;20885;-75
2022/09/15 06:44:31;;;;;;;22.13;21.10;;;20.00;99.90;;;;;;5010901;28;20512;-75
2022/09/15 06:46:58;;;;;;;25.30;24.00;;;19.60;99.90;;;;;;5010851;28;20464;-76
2022/09/15 06:49:25;;;;;;;33.13;31.47;;;19.60;99.90;;;;;;5010448;28;21015;-77
2022/09/15 06:51:52;;;;;;;32.07;30.57;;;19.10;99.90;;;;;;5010473;28;20564;-77
2022/09/15 06:54:19;;;;;;;35.23;33.43;;;19.30;99.90;;;;;;5010780;28;20461;-76
2022/09/15 06:56:46;;;;;;;35.67;33.77;;;19.10;99.90;;;;;;5011203;28;20461;-78
2022/09/15 06:59:13;;;;;;;35.10;33.30;;;19.80;99.90;;;;;;5010744;28;21020;-79
2022/09/15 07:01:42;;;;;;;36.67;34.53;;;18.90;99.90;;;;;;5010191;28;20458;-77
2022/09/15 07:04:09;;;;;;;36.20;34.40;;;20.00;99.90;;;;;;5010057;28;20450;-78
2022/09/15 07:06:37;;;;;;;35.47;33.53;;;18.90;99.90;;;;;;5010255;28;20552;-80
2022/09/15 07:09:05;;;;;;;34.23;32.53;;;18.70;99.90;;;;;;5010089;28;20473;-82
2022/09/15 07:11:33;;;;;;;35.37;33.40;;;18.80;99.90;;;;;;5011011;28;20557;-82
2022/09/15 07:13:59;;;;;;;34.80;33.10;;;18.50;99.90;;;;;;5010760;28;21145;-81
2022/09/15 07:16:26;;;;;;;36.53;34.00;;;18.60;99.90;;;;;;5010196;28;20450;-80
2022/09/15 07:18:56;;;;;;;34.77;33.07;;;19.00;99.90;;;;;;5010200;28;20549;-79
2022/09/15 07:21:24;;;;;;;34.63;32.83;;;18.60;99.90;;;;;;5010145;28;20904;-79
2022/09/15 07:23:50;;;;;;;35.40;33.67;;;18.70;99.90;;;;;;5009876;28;20450;-78
2022/09/15 07:26:19;;;;;;;34.23;32.57;;;18.50;99.90;;;;;;5010210;28;20485;-78
2022/09/15 07:28:49;;;;;;;33.80;32.20;;;18.50;99.90;;;;;;5010771;28;20473;-84
2022/09/15 07:31:18;;;;;;;35.80;33.67;;;18.40;99.90;;;;;;5010675;28;20878;-85
2022/09/15 07:33:45;;;;;;;34.27;32.43;;;18.60;99.90;;;;;;5010359;28;20475;-83
2022/09/15 07:36:13;;;;;;;34.93;33.33;;;18.70;99.90;;;;;;5010256;28;21010;-81
2022/09/15 07:38:42;;;;;;;33.03;31.33;;;18.80;99.90;;;;;;5010576;28;20545;-83
2022/09/15 07:41:10;;;;;;;33.60;31.90;;;18.60;99.90;;;;;;5010601;28;20702;-84
2022/09/15 07:43:37;;;;;;;34.60;33.00;;;19.20;99.90;;;;;;5010592;28;20454;-84
2022/09/15 07:46:05;;;;;;;34.47;32.23;;;18.80;99.90;;;;;;5010678;28;20493;-87
2022/09/15 07:48:31;;;;;;;35.83;34.03;;;18.70;99.90;;;;;;5010642;28;20979;-84
2022/09/15 07:50:58;;;;;;;36.80;34.63;;;18.90;99.90;;;;;;5010499;28;20457;-82
2022/09/15 07:53:28;;;;;;;37.07;34.97;;;20.30;99.90;;;;;;5009794;28;20482;-83
2022/09/15 07:55:55;;;;;;;34.77;32.80;;;;;;;;;;5010013;28;20453;-86
2022/09/15 07:58:23;;;;;;;34.07;32.30;;;18.40;99.90;;;;;;5009757;28;20476;-84
2022/09/15 08:00:50;;;;;;;34.00;32.23;;;18.60;99.90;;;;;;5009380;28;20465;-84
2022/09/15 08:03:16;;;;;;;34.50;32.60;;;18.40;99.90;;;;;;5009496;28;20450;-85
2022/09/15 08:05:43;;;;;;;37.27;34.90;;;18.60;99.90;;;;;;5009536;28;20485;-81
2022/09/15 08:08:10;;;;;;;32.70;30.90;;;18.40;99.90;;;;;;5009115;28;20454;-81
2022/09/15 08:10:40;;;;;;;32.73;31.23;;;18.30;99.90;;;;;;5008938;28;20446;-83
2022/09/15 08:13:07;;;;;;;33.17;31.57;;;18.60;99.90;;;;;;5009343;28;20549;-84
2022/09/15 08:15:36;;;;;;;32.50;31.07;;;18.30;99.90;;;;;;5010490;28;20464;-80
2022/09/15 08:18:02;;;;;;;33.10;31.40;;;18.10;99.90;;;;;;5011091;28;20509;-80
2022/09/15 08:20:30;;;;;;;31.37;29.83;;;18.50;99.90;;;;;;5009699;28;20454;-78
2022/09/15 08:22:57;;;;;;;32.10;30.30;;;18.30;99.90;;;;;;5009758;28;20847;-75
2022/09/15 08:25:23;;;;;;;33.00;30.73;;;18.30;99.90;;;;;;5008773;28;20573;-79
2022/09/15 08:27:52;;;;;;;32.87;31.17;;;18.30;99.90;;;;;;5009124;28;20477;-80
2022/09/15 08:30:19;;;;;;;31.97;30.13;;;18.40;99.90;;;;;;5008927;28;20449;-80
2022/09/15 08:32:46;;;;;;;31.83;30.27;;;18.40;99.90;;;;;;5009221;28;20458;-77
2022/09/15 08:35:13;;;;;;;31.23;29.83;;;18.70;99.90;;;;;;5009100;28;20486;-78
2022/09/15 08:37:40;;;;;;;32.30;30.80;;;18.60;99.90;;;;;;5009258;28;20454;-80
2022/09/15 08:40:09;;;;;;;33.43;31.80;;;18.50;99.90;;;;;;5008798;28;20445;-80
2022/09/15 08:42:36;;;;;;;31.60;30.10;;;18.50;99.90;;;;;;5008537;28;20461;-79
2022/09/15 08:45:16;;;;;;;32.33;30.73;;;18.40;99.90;;;;;;4995414;28;20478;-79
2022/09/15 08:47:46;;;;;;;34.13;31.97;;;18.60;99.90;;;;;;4989315;28;20928;-78
2022/09/15 08:50:27;;;;;;;35.17;33.10;;;18.50;99.90;;;;;;4989276;28;20454;-78
2022/09/15 08:52:59;;;;;;;38.40;36.50;;;18.60;99.90;;;;;;4988918;28;20548;-79
2022/09/15 08:55:37;;;;;;;37.17;35.37;;;18.60;99.90;;;;;;4988812;28;20526;-77
2022/09/15 08:58:05;;;;;;;35.50;33.90;;;18.60;99.90;;;;;;4989029;28;20581;-76
2022/09/15 09:00:33;;;;;;;34.90;33.20;;;18.60;99.90;;;;;;4989239;28;20447;-76
2022/09/15 09:03:26;;;;;;;36.30;34.30;;;18.60;99.90;;;;;;4989142;28;20465;-77
2022/09/15 09:05:58;;;;;;;34.63;33.03;;;18.80;99.90;;;;;;4988905;28;20487;-78
2022/09/15 09:08:56;;;;;;;32.90;31.30;;;18.90;99.90;;;;;;4988873;28;20462;-78
2022/09/15 09:11:33;;;;;;;33.00;31.20;;;19.00;99.90;;;;;;4988895;28;20451;-76
2022/09/15 09:14:09;;;;;;;34.70;33.10;;;19.20;99.90;;;;;;4988941;28;20454;-77
2022/09/15 09:16:53;;;;;;;35.60;33.87;;;19.10;99.90;;;;;;4988963;28;20451;-76
2022/09/15 09:19:48;;;;;;;32.50;30.80;;;19.30;99.90;;;;;;4988817;28;20458;-73
2022/09/15 09:22:20;;;;;;;34.60;33.00;;;19.50;99.90;;;;;;4988989;28;20455;-73
2022/09/15 09:24:50;;;;;;;33.87;32.37;;;19.80;99.90;;;;;;4989040;28;20924;-74
2022/09/15 09:27:20;;;;;;;35.03;33.50;;;19.80;99.90;;;;;;4988868;28;20490;-75
2022/09/15 09:29:49;;;;;;;31.97;30.47;;;19.80;99.90;;;;;;4989108;28;20459;-75
2022/09/15 09:32:23;;;;;;;33.90;32.50;;;19.80;99.90;;;;;;4992235;28;20458;-76
2022/09/15 09:34:58;;;;;;;35.67;34.07;;;20.00;99.90;;;;;;4992198;28;20569;-75
2022/09/15 09:37:25;;;;;;;33.80;32.40;;;20.20;99.90;;;;;;4992598;28;20455;-76
2022/09/15 09:39:52;;;;;;;30.57;29.37;;;20.30;99.90;;;;;;4992343;28;20458;-74
2022/09/15 09:42:19;;;;;;;27.87;26.77;;;20.30;99.90;;;;;;4995173;28;20929;-74
2022/09/15 09:44:47;;;;;;;25.17;24.00;;;;;;;;;;4992635;28;20485;-75
2022/09/15 09:47:14;;;;;;;24.20;23.17;;;20.10;99.90;;;;;;4997662;28;20481;-75
2022/09/15 09:49:45;;;;;;;25.03;23.77;;;20.30;99.90;;;;;;4994418;28;20454;-74
2022/09/15 09:52:12;;;;;;;24.90;23.90;;;20.20;99.90;;;;;;4999677;28;20451;-75
2022/09/15 09:54:40;;;;;;;23.20;22.30;;;19.80;99.90;;;;;;5000680;28;20451;-76
2022/09/15 09:57:28;;;;;;;22.23;21.37;;;19.40;99.90;;;;;;5001620;28;20454;-75
2022/09/15 09:59:55;;;;;;;26.63;25.43;;;19.30;99.90;;;;;;4992245;28;20455;-75
2022/09/15 10:02:23;;;;;;;27.23;26.13;;;19.00;99.90;;;;;;4992270;28;20802;-74
2022/09/15 10:04:53;;;;;;;30.40;28.93;;;18.90;99.90;;;;;;4992027;28;20459;-73
2022/09/15 10:07:23;;;;;;;30.80;29.27;;;18.80;99.90;;;;;;4991603;28;20486;-72
2022/09/15 10:10:00;;;;;;;32.10;30.50;;;18.70;99.90;;;;;;4991874;28;20525;-72
2022/09/15 10:12:30;;;;;;;33.80;32.40;;;18.70;99.90;;;;;;4991663;28;20542;-73
2022/09/15 10:15:00;;;;;;;33.77;32.30;;;18.40;99.90;;;;;;4992054;28;20601;-73
2022/09/15 10:17:38;;;;;;;33.30;31.60;;;18.30;99.90;;;;;;4991700;28;20949;-73
2022/09/15 10:20:23;;;;;;;31.70;30.20;;;18.30;99.90;;;;;;4991425;28;20466;-73
2022/09/15 10:22:50;;;;;;;29.07;27.70;;;18.20;99.90;;;;;;4991424;28;20524;-73
2022/09/15 10:25:35;;;;;;;31.57;29.80;;;18.10;99.90;;;;;;4991655;28;20455;-73
2022/09/15 10:28:11;;;;;;;31.17;29.63;;;18.00;99.90;;;;;;4991866;28;20446;-73
2022/09/15 10:30:38;;;;;;;29.73;28.33;;;17.90;99.90;;;;;;4991554;28;20866;-74
2022/09/15 10:33:20;;;;;;;32.43;30.93;;;17.90;99.90;;;;;;4990855;28;20453;-74
2022/09/15 10:35:48;;;;;;;32.07;30.37;;;17.90;99.90;;;;;;4991190;28;20542;-73
2022/09/15 10:38:20;;;;;;;31.50;30.00;;;17.80;99.90;;;;;;4991383;28;20474;-73
2022/09/15 10:40:55;;;;;;;32.13;30.70;;;17.70;99.90;;;;;;4991429;28;20458;-73
2022/09/15 10:43:31;;;;;;;29.97;28.60;;;17.60;99.90;;;;;;4990528;28;21145;-73
2022/09/15 10:46:03;;;;;;;30.27;28.67;;;17.50;99.90;;;;;;4991289;28;20490;-73
2022/09/15 10:48:39;;;;;;;30.17;28.87;;;17.30;99.90;;;;;;4991330;28;20799;-73
2022/09/15 10:51:21;;;;;;;30.57;28.97;;;17.10;99.90;;;;;;4991152;28;20450;-73
2022/09/15 10:54:18;;;;;;;30.07;28.70;;;17.10;99.90;;;;;;4991241;28;20945;-72
2022/09/15 10:56:48;;;;;;;30.30;28.90;;;17.00;99.90;;;;;;4991563;28;20454;-73
2022/09/15 10:59:26;;;;;;;32.50;30.90;;;17.00;99.90;;;;;;4991137;28;20453;-73
2022/09/15 11:02:19;;;;;;;33.80;32.03;;;17.10;99.90;;;;;;5018076;28;20811;-73
2022/09/15 11:05:03;;;;;;;35.00;33.20;;;17.00;99.90;;;;;;5019427;28;20453;-73
2022/09/15 11:07:39;;;;;;;34.37;32.67;;;16.90;99.90;;;;;;5010921;28;20482;-72
2022/09/15 11:10:13;;;;;;;35.80;33.90;;;16.90;99.90;;;;;;5030288;28;20488;-73
2022/09/15 11:12:51;;;;;;;36.57;34.67;;;16.80;99.90;;;;;;5023043;28;20449;-74
2022/09/15 11:15:41;;;;;;;37.53;35.80;;;17.20;99.90;;;;;;5008339;28;20838;-73
2022/09/15 11:18:23;;;;;;;36.17;34.30;;;16.80;99.90;;;;;;5010289;28;20450;-73
2022/09/15 11:21:03;;;;;;;34.17;32.47;;;16.40;99.90;;;;;;5009911;28;20833;-74
2022/09/15 11:23:36;;;;;;;32.97;31.17;;;17.30;99.90;;;;;;5009796;28;20458;-73
2022/09/15 11:26:09;;;;;;;34.03;32.30;;;16.60;99.90;;;;;;5010075;28;20520;-73
2022/09/15 11:28:41;;;;;;;33.27;31.43;;;17.00;99.90;;;;;;5009913;28;20499;-72
2022/09/15 11:31:15;;;;;;;35.10;33.10;;;17.10;99.90;;;;;;5010069;28;20715;-73
2022/09/15 11:33:46;;;;;;;35.13;33.23;;;16.60;99.90;;;;;;5010128;28;20552;-75
2022/09/15 11:36:17;;;;;;;34.77;32.77;;;16.60;99.90;;;;;;5009992;28;20512;-74
2022/09/15 11:38:49;;;;;;;34.67;32.97;;;16.50;99.90;;;;;;5010392;28;20464;-74
2022/09/15 11:41:19;;;;;;;36.60;34.80;;;16.80;99.90;;;;;;5010235;28;20473;-74
2022/09/15 11:43:55;;;;;;;38.53;36.10;;;16.50;99.90;;;;;;5010539;28;20478;-72
2022/09/15 11:46:29;;;;;;;35.90;33.80;;;16.20;99.90;;;;;;5009728;28;20678;-72
2022/09/15 11:49:00;;;;;;;36.87;34.87;;;16.30;99.90;;;;;;5010039;28;20457;-71
2022/09/15 11:51:32;;;;;;;37.23;35.23;;;16.40;99.90;;;;;;5010135;28;20457;-72
2022/09/15 11:54:06;;;;;;;36.30;34.20;;;16.60;99.90;;;;;;5009552;28;20457;-71
2022/09/15 11:56:39;;;;;;;38.63;36.50;;;16.50;99.90;;;;;;5010147;28;20442;-71
2022/09/15 11:59:17;;;;;;;40.30;37.97;;;16.70;99.90;;;;;;5009840;28;20454;-71
2022/09/15 12:01:50;;;;;;;38.00;36.03;;;16.70;99.90;;;;;;5009961;28;20450;-71
2022/09/15 12:04:24;;;;;;;38.10;36.30;;;16.50;99.90;;;;;;5009883;28;20458;-72
2022/09/15 12:06:56;;;;;;;40.90;38.70;;;16.60;99.90;;;;;;5009283;28;20918;-72
2022/09/15 12:09:24;;;;;;;39.37;37.30;;;16.70;99.90;;;;;;5009604;28;20871;-71
2022/09/15 12:11:54;;;;;;;38.27;36.20;;;16.70;99.90;;;;;;5009314;28;20811;-71
2022/09/15 12:14:29;;;;;;;39.00;36.93;;;16.90;99.90;;;;;;5009314;28;20460;-71
2022/09/15 12:16:57;;;;;;;38.17;35.77;;;17.00;99.90;;;;;;5009580;28;20449;-71
2022/09/15 12:19:43;;;;;;;32.97;31.27;;;17.10;99.90;;;;;;5009396;28;20458;-71
2022/09/15 12:22:18;;;;;;;32.87;30.90;;;17.30;99.90;;;;;;5009310;28;20460;-72
2022/09/15 12:24:56;;;;;;;26.57;25.47;;;17.60;99.90;;;;;;5009680;28;20457;-72
2022/09/15 12:27:23;;;;;;;26.20;24.90;;;17.80;99.90;;;;;;5009203;28;20491;-73
2022/09/15 12:29:52;;;;;;;23.70;22.70;;;18.30;99.90;;;;;;5007284;28;20511;-72
2022/09/15 12:32:22;;;;;;;23.30;22.23;;;18.80;99.90;;;;;;5008908;28;20457;-73
2022/09/15 12:35:05;;;;;;;19.90;19.10;;;19.20;99.90;;;;;;5008680;28;20560;-72
2022/09/15 12:37:38;;;;;;;18.30;17.50;;;19.90;99.90;;;;;;5009213;28;20554;-73
2022/09/15 12:40:26;;;;;;;16.17;15.37;;;19.60;99.90;;;;;;5008501;28;20560;-73
2022/09/15 12:42:53;;;;;;;15.30;14.50;;;20.70;99.90;;;;;;5008209;28;20469;-72
2022/09/15 12:45:23;;;;;;;15.27;14.60;;;20.80;99.90;;;;;;5008302;28;20971;-73
2022/09/15 12:47:53;;;;;;;15.07;14.30;;;20.90;99.90;;;;;;5008019;28;20485;-72
2022/09/15 12:50:24;;;;;;;16.70;15.90;;;20.70;99.90;;;;;;5008251;28;21097;-72
2022/09/15 12:52:53;;;;;;;15.93;15.13;;;20.80;99.90;;;;;;5008268;28;20811;-72
2022/09/15 12:55:23;;;;;;;16.57;15.87;;;20.70;99.90;;;;;;5008058;28;20552;-72
2022/09/15 12:57:54;;;;;;;15.60;14.60;;;20.20;99.90;;;;;;5008184;28;20899;-72
2022/09/15 13:00:38;;;;;;;15.27;14.40;;;20.50;99.90;;;;;;5008305;28;20472;-73
2022/09/15 13:03:08;;;;;;;15.27;14.57;;;20.70;99.90;;;;;;5007843;28;20449;-72
2022/09/15 13:06:09;;;;;;;15.53;14.70;;;20.80;99.90;;;;;;5007414;28;20453;-74
2022/09/15 13:08:49;;;;;;;15.07;14.13;;;20.80;99.90;;;;;;5007468;28;20540;-74
2022/09/15 13:11:28;;;;;;;13.77;13.23;;;20.90;99.90;;;;;;5008398;28;20444;-73
2022/09/15 13:14:09;;;;;;;15.53;14.73;;;20.70;99.90;;;;;;5008036;28;20999;-74
2022/09/15 13:16:44;;;;;;;15.97;15.17;;;20.50;99.90;;;;;;5007851;28;20449;-75
2022/09/15 13:19:16;;;;;;;15.07;14.30;;;20.40;99.90;;;;;;5007818;28;20449;-74
2022/09/15 13:21:48;;;;;;;14.23;13.60;;;20.60;99.90;;;;;;5006374;28;20568;-74
2022/09/15 13:24:20;;;;;;;15.43;14.63;;;20.40;99.90;;;;;;5008710;28;20454;-73
2022/09/15 13:26:54;;;;;;;14.70;13.90;;;20.40;99.90;;;;;;5008196;28;20490;-73
2022/09/15 13:29:23;;;;;;;14.90;14.30;;;20.60;99.90;;;;;;5007727;28;20689;-73
2022/09/15 13:32:00;;;;;;;14.93;13.97;;;20.90;99.90;;;;;;5007706;28;20511;-71
2022/09/15 13:34:45;;;;;;;15.17;14.27;;;21.30;99.90;;;;;;5007556;28;20480;-72
2022/09/15 13:37:41;;;;;;;15.57;14.70;;;21.60;99.90;;;;;;5007757;28;20810;-73
2022/09/15 13:40:27;;;;;;;15.17;14.37;;;21.50;99.90;;;;;;5007741;28;20450;-73
2022/09/15 13:43:18;;;;;;;14.23;13.50;;;21.20;99.90;;;;;;5007841;28;20453;-73
2022/09/15 13:45:54;;;;;;;15.83;15.03;;;20.60;99.90;;;;;;5007965;28;20489;-71
2022/09/15 13:48:47;;;;;;;13.77;12.77;;;20.70;99.90;;;;;;5007446;28;20516;-72
2022/09/15 13:51:21;;;;;;;14.63;13.93;;;21.20;99.90;;;;;;5008110;28;20453;-71
2022/09/15 13:53:52;;;;;;;15.10;14.23;;;21.20;99.90;;;;;;5007727;28;20523;-73
2022/09/15 13:56:26;;;;;;;14.97;14.27;;;21.50;99.90;;;;;;5007950;28;20450;-73
2022/09/15 13:59:01;;;;;;;14.83;13.93;;;21.80;99.90;;;;;;5007708;28;20522;-73
2022/09/15 14:01:30;;;;;;;17.17;16.27;;;21.40;99.90;;;;;;5007731;28;20481;-73
2022/09/15 14:03:59;;;;;;;16.83;15.83;;;21.60;99.90;;;;;;5007701;28;20541;-73
2022/09/15 14:06:33;;;;;;;14.43;13.60;;;21.70;99.90;;;;;;5007592;28;20485;-72
2022/09/15 14:09:04;;;;;;;12.83;12.30;;;21.70;99.90;;;;;;5007944;28;20442;-74
2022/09/15 14:11:34;;;;;;;13.83;13.13;;;21.90;99.90;;;;;;5007895;28;20458;-73
2022/09/15 14:14:10;;;;;;;13.83;13.23;;;22.00;99.90;;;;;;5008033;28;20560;-73
2022/09/15 14:16:39;;;;;;;14.23;13.63;;;22.20;99.90;;;;;;5007598;28;20557;-72
2022/09/15 14:19:28;;;;;;;14.53;13.97;;;22.20;99.90;;;;;;5010140;28;20477;-73
2022/09/15 14:21:55;;;;;;;14.90;14.00;;;;;;;;;;5011334;28;20450;-73
2022/09/15 14:24:25;;;;;;;14.57;13.90;;;22.10;99.90;;;;;;5011145;28;20732;-74
2022/09/15 14:26:52;;;;;;;12.83;12.03;;;22.30;99.90;;;;;;5010951;28;20453;-73
2022/09/15 14:29:23;;;;;;;13.40;12.80;;;22.40;99.90;;;;;;5011319;28;20450;-74
2022/09/15 14:31:50;;;;;;;14.23;13.23;;;22.30;99.90;;;;;;5010672;28;20528;-71
2022/09/15 14:34:19;;;;;;;15.23;14.33;;;21.70;99.90;;;;;;5010977;28;20504;-74
2022/09/15 14:36:53;;;;;;;14.70;14.00;;;21.30;99.90;;;;;;5010951;28;20553;-74
2022/09/15 14:39:22;;;;;;;14.50;13.50;;;21.70;99.90;;;;;;5010684;28;20453;-74
2022/09/15 14:41:49;;;;;;;14.83;14.13;;;20.60;99.90;;;;;;5010859;28;20573;-73
2022/09/15 14:44:25;;;;;;;14.07;13.27;;;20.70;99.90;;;;;;5011080;28;20466;-73
2022/09/15 14:46:52;;;;;;;13.13;12.53;;;20.30;99.90;;;;;;5010470;28;20995;-74
2022/09/15 14:49:19;;;;;;;15.47;14.70;;;20.10;99.90;;;;;;5010619;28;20484;-73
2022/09/15 14:51:49;;;;;;;14.33;13.63;;;20.20;99.90;;;;;;5011239;28;20450;-71
2022/09/15 14:54:21;;;;;;;16.33;15.53;;;19.80;99.90;;;;;;5010866;28;20970;-71
2022/09/15 14:56:50;;;;;;;15.40;14.60;;;19.70;99.90;;;;;;5010766;28;20473;-74
2022/09/15 14:59:20;;;;;;;16.40;15.10;;;19.80;99.90;;;;;;5011031;28;20454;-73
2022/09/15 15:01:57;;;;;;;15.30;14.70;;;19.80;99.90;;;;;;5011163;28;20466;-74
2022/09/15 15:04:30;;;;;;;14.97;14.27;;;19.80;99.90;;;;;;5010832;28;20456;-73
2022/09/15 15:07:02;;;;;;;14.77;14.17;;;19.80;99.90;;;;;;5010587;28;20453;-73
2022/09/15 15:09:33;;;;;;;15.00;14.30;;;19.80;99.90;;;;;;5010792;28;20446;-73
2022/09/15 15:12:04;;;;;;;15.13;14.53;;;19.70;99.90;;;;;;5010769;28;20449;-73
2022/09/15 15:14:31;;;;;;;14.07;13.27;;;19.80;99.90;;;;;;5010986;28;20449;-73
2022/09/15 15:17:00;;;;;;;14.50;13.80;;;20.00;99.90;;;;;;5010097;28;20453;-73
2022/09/15 15:19:32;;;;;;;13.87;13.37;;;20.10;99.90;;;;;;5010123;28;20448;-72
2022/09/15 15:22:08;;;;;;;13.70;13.10;;;20.10;99.90;;;;;;5010359;28;20448;-73
2022/09/15 15:24:40;;;;;;;15.07;14.50;;;20.00;99.90;;;;;;5010040;28;20478;-72
2022/09/15 15:27:43;;;;;;;14.70;14.07;;;19.90;99.90;;;;;;5009881;28;20449;-72
2022/09/15 15:30:43;;;;;;;14.40;13.60;;;19.80;99.90;;;;;;4987861;28;20447;-72
2022/09/15 15:33:23;;;;;;;14.70;14.00;;;20.00;99.90;;;;;;4987903;28;20991;-72
2022/09/15 15:36:05;;;;;;;14.40;13.80;;;19.80;99.90;;;;;;5004336;28;20477;-72
2022/09/15 15:38:34;;;;;;;14.00;13.27;;;19.80;99.90;;;;;;5009896;28;20442;-72
2022/09/15 15:41:34;;;;;;;15.00;14.10;;;20.00;99.90;;;;;;5009945;28;20449;-76
2022/09/15 15:44:07;;;;;;;14.47;13.87;;;19.90;99.90;;;;;;4987610;28;20533;-73
2022/09/15 15:46:48;;;;;;;13.93;13.27;;;19.90;99.90;;;;;;5004870;28;20532;-74
2022/09/15 15:49:17;;;;;;;14.43;13.60;;;20.00;99.90;;;;;;5009710;28;20513;-73